createdAt,value
2018-07-17T00:01:02.485Z,82.70
2018-07-17T00:03:31.341Z,83.40
2018-07-17T00:06:00.152Z,83.50
2018-07-17T00:08:28.854Z,83.90
2018-07-17T00:10:57.567Z,84.20
2018-07-17T00:13:26.408Z,84.80
2018-07-17T00:15:55.153Z,85.50
2018-07-17T00:18:23.982Z,85.60
2018-07-17T00:20:52.861Z,86.30
2018-07-17T00:23:21.623Z,84.40
2018-07-17T00:25:50.360Z,83.50
2018-07-17T00:28:19.047Z,84.20
2018-07-17T00:30:47.928Z,83.90
2018-07-17T00:33:16.844Z,83.60
2018-07-17T00:35:45.793Z,83.90
2018-07-17T00:38:14.589Z,83.90
2018-07-17T00:40:43.332Z,83.80
2018-07-17T00:43:12.131Z,83.90
2018-07-17T00:45:40.968Z,84.20
2018-07-17T00:48:09.757Z,83.90
2018-07-17T00:50:38.541Z,83.00
2018-07-17T00:53:07.258Z,83.10
2018-07-17T00:55:35.979Z,83.20
2018-07-17T00:58:04.744Z,83.40
2018-07-17T01:00:38.763Z,83.50
2018-07-17T01:03:12.779Z,83.40
2018-07-17T01:05:46.779Z,84.00
2018-07-17T01:08:20.888Z,84.00
2018-07-17T01:10:54.953Z,84.20
2018-07-17T01:13:33.990Z,84.40
2018-07-17T01:16:02.838Z,84.80
2018-07-17T01:18:31.610Z,85.00
2018-07-17T01:21:00.521Z,85.30
2018-07-17T01:23:29.263Z,85.30
2018-07-17T01:25:58.068Z,85.30
2018-07-17T01:28:26.774Z,85.20
2018-07-17T01:30:55.497Z,84.90
2018-07-17T01:33:24.296Z,84.30
2018-07-17T01:35:53.067Z,84.10
2018-07-17T01:38:21.711Z,84.70
2018-07-17T01:40:50.505Z,84.90
2018-07-17T01:43:19.304Z,84.90
2018-07-17T01:45:48.165Z,84.30
2018-07-17T01:48:16.976Z,83.50
2018-07-17T01:50:45.650Z,83.80
2018-07-17T01:53:14.396Z,83.90
2018-07-17T01:55:43.256Z,84.10
2018-07-17T01:58:12.030Z,84.40
2018-07-17T02:00:40.978Z,84.60
2018-07-17T02:03:09.778Z,83.80
2018-07-17T02:05:38.611Z,83.90
2018-07-17T02:08:07.546Z,84.20
2018-07-17T02:10:36.402Z,84.20
2018-07-17T02:13:05.142Z,85.20
2018-07-17T02:15:33.822Z,85.40
2018-07-17T02:18:02.506Z,85.80
2018-07-17T02:20:31.228Z,85.30
2018-07-17T02:23:00.030Z,85.10
2018-07-17T02:25:28.911Z,84.60
2018-07-17T02:27:57.726Z,84.80
2018-07-17T02:30:26.455Z,84.50
2018-07-17T02:32:55.235Z,84.60
2018-07-17T02:35:24.071Z,84.70
2018-07-17T02:37:52.860Z,85.10
2018-07-17T02:40:21.628Z,84.60
2018-07-17T02:42:50.370Z,84.00
2018-07-17T02:45:19.203Z,84.00
2018-07-17T02:47:47.957Z,83.90
2018-07-17T02:50:16.819Z,84.10
2018-07-17T02:52:45.610Z,84.50
2018-07-17T02:55:14.435Z,85.00
2018-07-17T02:57:43.206Z,84.80
2018-07-17T03:00:12.068Z,84.50
2018-07-17T03:02:40.878Z,84.60
2018-07-17T03:05:09.630Z,84.60
2018-07-17T03:07:38.387Z,84.40
2018-07-17T03:10:07.195Z,84.60
2018-07-17T03:12:35.999Z,84.90
2018-07-17T03:15:04.916Z,85.10
2018-07-17T03:17:33.787Z,85.40
2018-07-17T03:20:02.602Z,85.80
2018-07-17T03:22:31.417Z,86.20
2018-07-17T03:25:00.217Z,86.50
2018-07-17T03:27:28.986Z,86.60
2018-07-17T03:29:57.796Z,86.40
2018-07-17T03:32:26.610Z,86.00
2018-07-17T03:34:55.486Z,85.80
2018-07-17T03:37:24.194Z,85.50
2018-07-17T03:39:53.032Z,86.20
2018-07-17T03:42:21.796Z,86.00
2018-07-17T03:44:50.629Z,86.00
2018-07-17T03:47:19.354Z,85.40
2018-07-17T03:49:48.190Z,85.00
2018-07-17T03:52:16.966Z,84.70
2018-07-17T03:54:45.661Z,84.40
2018-07-17T03:57:14.669Z,84.70
2018-07-17T03:59:43.518Z,84.60
2018-07-17T04:02:12.342Z,84.40
2018-07-17T04:04:41.150Z,84.80
2018-07-17T04:07:09.946Z,84.60
2018-07-17T04:09:38.782Z,85.10
2018-07-17T04:12:07.849Z,85.40
2018-07-17T04:14:36.708Z,85.80
2018-07-17T04:17:05.575Z,86.00
2018-07-17T04:19:34.379Z,86.50
2018-07-17T04:22:03.175Z,86.60
2018-07-17T04:24:31.999Z,87.20
2018-07-17T04:27:00.759Z,87.70
2018-07-17T04:29:29.563Z,87.90
2018-07-17T04:31:58.316Z,88.00
2018-07-17T04:34:27.068Z,88.10
2018-07-17T04:36:55.810Z,88.30
2018-07-17T04:39:24.607Z,88.30
2018-07-17T04:41:53.424Z,88.30
2018-07-17T04:44:22.764Z,88.30
2018-07-17T04:46:51.642Z,88.30
2018-07-17T04:49:20.607Z,88.40
2018-07-17T04:51:50.698Z,88.40
2018-07-17T04:54:19.430Z,88.50
2018-07-17T04:56:48.254Z,88.30
2018-07-17T04:59:17.245Z,88.40
2018-07-17T05:01:46.092Z,88.20
2018-07-17T05:04:14.942Z,88.20
2018-07-17T05:06:45.660Z,87.70
2018-07-17T05:09:14.481Z,87.50
2018-07-17T05:11:43.690Z,87.20
2018-07-17T05:14:12.321Z,86.80
2018-07-17T05:16:41.352Z,87.10
2018-07-17T05:19:10.746Z,86.80
2018-07-17T05:21:39.497Z,86.60
2018-07-17T05:24:08.341Z,86.20
2018-07-17T05:26:37.235Z,85.50
2018-07-17T05:29:06.210Z,85.60
2018-07-17T05:31:34.888Z,85.20
2018-07-17T05:34:03.711Z,85.70
2018-07-17T05:36:32.481Z,85.80
2018-07-17T05:39:01.221Z,85.80
2018-07-17T05:41:31.642Z,85.10
2018-07-17T05:44:00.470Z,84.70
2018-07-17T05:46:29.320Z,84.70
2018-07-17T05:48:58.301Z,84.80
2018-07-17T05:51:27.793Z,84.50
2018-07-17T05:53:57.244Z,84.20
2018-07-17T05:56:26.098Z,84.00
2018-07-17T05:58:54.942Z,83.80
2018-07-17T06:01:23.696Z,84.70
2018-07-17T06:03:52.373Z,85.00
2018-07-17T06:06:21.193Z,85.50
2018-07-17T06:08:49.935Z,85.50
2018-07-17T06:11:18.629Z,86.30
2018-07-17T06:13:47.522Z,86.30
2018-07-17T06:16:17.159Z,86.40
2018-07-17T06:18:46.008Z,86.40
2018-07-17T06:21:14.802Z,86.50
2018-07-17T06:23:43.570Z,86.70
2018-07-17T06:26:12.395Z,86.60
2018-07-17T06:28:41.165Z,86.10
2018-07-17T06:31:10.138Z,85.70
2018-07-17T06:33:39.073Z,86.00
2018-07-17T06:36:07.865Z,86.20
2018-07-17T06:38:36.735Z,86.00
2018-07-17T06:41:05.493Z,85.50
2018-07-17T06:43:34.336Z,85.70
2018-07-17T06:46:04.688Z,85.70
2018-07-17T06:48:33.601Z,85.40
2018-07-17T06:51:02.602Z,84.60
2018-07-17T06:53:31.529Z,84.40
2018-07-17T06:56:00.328Z,84.10
2018-07-17T06:58:29.133Z,83.70
2018-07-17T07:00:58.059Z,83.70
2018-07-17T07:03:26.862Z,83.20
2018-07-17T07:05:55.644Z,82.00
2018-07-17T07:08:24.467Z,81.60
2018-07-17T07:10:54.229Z,82.30
2018-07-17T07:13:23.030Z,81.70
2018-07-17T07:15:53.352Z,81.70
2018-07-17T07:18:22.133Z,81.60
2018-07-17T07:20:50.926Z,82.00
2018-07-17T07:23:19.822Z,81.70
2018-07-17T07:25:48.610Z,81.80
2018-07-17T07:28:17.382Z,81.70
2018-07-17T07:30:46.148Z,81.60
2018-07-17T07:33:14.993Z,81.80
2018-07-17T07:35:46.269Z,81.30
2018-07-17T07:38:14.967Z,81.50
2018-07-17T07:40:43.748Z,81.50
2018-07-17T07:43:13.727Z,80.90
2018-07-17T07:45:42.630Z,80.80
2018-07-17T07:48:11.413Z,80.90
2018-07-17T07:50:40.877Z,81.40
2018-07-17T07:53:09.733Z,81.40
2018-07-17T07:55:38.633Z,81.10
2018-07-17T07:58:08.898Z,81.10
2018-07-17T08:00:37.770Z,78.60
2018-07-17T08:03:06.564Z,79.90
2018-07-17T08:05:35.352Z,79.00
2018-07-17T08:08:04.258Z,79.10
2018-07-17T08:10:33.010Z,78.90
2018-07-17T08:13:01.992Z,79.30
2018-07-17T08:15:30.774Z,79.20
2018-07-17T08:18:00.838Z,78.80
2018-07-17T08:20:29.589Z,78.20
2018-07-17T08:22:58.349Z,79.00
2018-07-17T08:25:27.160Z,78.00
2018-07-17T08:27:55.875Z,78.00
2018-07-17T08:30:25.032Z,76.30
2018-07-17T08:32:54.050Z,77.60
2018-07-17T08:35:23.170Z,77.20
2018-07-17T08:37:51.967Z,77.20
2018-07-17T08:40:20.820Z,76.70
2018-07-17T08:42:49.610Z,76.60
2018-07-17T08:45:18.427Z,76.00
2018-07-17T08:51:19.384Z,75.80
2018-07-17T08:53:48.239Z,74.40
2018-07-17T08:56:17.244Z,74.60
2018-07-17T08:58:46.154Z,73.80
2018-07-17T09:01:14.946Z,73.00
2018-07-17T09:03:43.693Z,73.40
2018-07-17T09:06:12.480Z,73.50
2018-07-17T09:08:42.492Z,73.00
2018-07-17T09:11:11.402Z,73.00
2018-07-17T09:13:40.316Z,72.70
2018-07-17T09:16:09.043Z,72.50
2018-07-17T09:18:37.923Z,72.60
2018-07-17T09:21:07.467Z,72.30
2018-07-17T09:23:36.359Z,72.10
2018-07-17T09:26:06.072Z,71.80
2018-07-17T09:28:34.822Z,72.10
2018-07-17T09:31:03.913Z,71.80
2018-07-17T09:33:32.911Z,71.40
2018-07-17T09:36:01.823Z,72.00
2018-07-17T09:38:30.898Z,71.80
2018-07-17T09:41:01.733Z,72.20
2018-07-17T09:43:30.609Z,71.90
2018-07-17T09:45:59.510Z,71.40
2018-07-17T09:48:28.257Z,71.40
2018-07-17T09:50:57.133Z,71.30
2018-07-17T09:53:25.884Z,70.90
2018-07-17T09:55:54.537Z,71.10
2018-07-17T09:58:23.240Z,70.70
2018-07-17T10:00:57.133Z,71.00
2018-07-17T10:03:25.977Z,70.40
2018-07-17T10:05:54.712Z,69.10
2018-07-17T10:08:23.525Z,69.90
2018-07-17T10:10:52.398Z,69.60
2018-07-17T10:13:21.227Z,69.30
2018-07-17T10:15:50.035Z,69.40
2018-07-17T10:18:18.811Z,69.10
2018-07-17T10:20:49.334Z,69.30
2018-07-17T10:23:20.466Z,68.10
2018-07-17T10:25:49.183Z,68.30
2018-07-17T10:28:20.039Z,68.30
2018-07-17T10:30:48.767Z,68.20
2018-07-17T10:33:17.640Z,67.80
2018-07-17T10:35:46.398Z,67.50
2018-07-17T10:38:15.252Z,67.70
2018-07-17T10:40:44.198Z,68.10
2018-07-17T10:43:13.215Z,67.80
2018-07-17T10:45:42.084Z,68.40
2018-07-17T10:48:10.907Z,68.30
2018-07-17T10:50:39.696Z,67.30
2018-07-17T10:53:08.423Z,65.90
2018-07-17T10:55:38.629Z,66.30
2018-07-17T10:58:07.270Z,66.30
2018-07-17T11:00:37.165Z,66.40
2018-07-17T11:03:05.892Z,66.10
2018-07-17T11:05:34.755Z,66.40
2018-07-17T11:08:03.674Z,66.00
2018-07-17T11:10:32.458Z,66.00
2018-07-17T11:13:01.325Z,65.70
2018-07-17T11:15:30.093Z,65.80
2018-07-17T11:17:58.891Z,65.60
2018-07-17T11:20:27.604Z,65.80
2018-07-17T11:22:56.485Z,63.20
2018-07-17T11:25:26.516Z,62.40
2018-07-17T11:27:55.351Z,64.40
2018-07-17T11:30:24.137Z,62.30
2018-07-17T11:32:53.150Z,61.70
2018-07-17T11:35:22.191Z,63.00
2018-07-17T11:37:50.960Z,62.90
2018-07-17T11:40:19.820Z,64.60
2018-07-17T11:42:48.637Z,64.70
2018-07-17T11:45:18.666Z,64.10
2018-07-17T11:47:47.422Z,64.40
2018-07-17T11:50:16.260Z,64.00
2018-07-17T11:52:45.110Z,62.40
2018-07-17T11:55:13.922Z,63.30
2018-07-17T11:57:43.493Z,64.30
2018-07-17T12:00:12.150Z,62.20
2018-07-17T12:02:41.053Z,62.30
2018-07-17T12:05:09.845Z,62.40
2018-07-17T12:07:38.672Z,62.00
2018-07-17T12:10:07.402Z,60.70
2018-07-17T12:12:40.060Z,60.70
2018-07-17T12:15:08.694Z,61.50
2018-07-17T12:17:37.453Z,61.20
2018-07-17T12:20:06.478Z,61.40
2018-07-17T12:22:35.298Z,59.90
2018-07-17T12:25:04.204Z,60.50
2018-07-17T12:27:33.047Z,61.80
2018-07-17T12:30:01.827Z,61.30
2018-07-17T12:32:32.412Z,61.40
2018-07-17T12:35:01.427Z,62.00
2018-07-17T12:37:30.146Z,61.10
2018-07-17T12:39:58.941Z,60.90
2018-07-17T12:42:27.639Z,61.30
2018-07-17T12:44:56.408Z,61.10
2018-07-17T12:47:26.072Z,61.00
2018-07-17T12:49:54.795Z,60.80
2018-07-17T12:52:23.594Z,60.50
2018-07-17T12:54:52.384Z,60.10
2018-07-17T12:57:21.159Z,60.90
2018-07-17T12:59:50.077Z,61.50
2018-07-17T13:02:18.936Z,61.50
2018-07-17T13:04:47.912Z,60.90
2018-07-17T13:07:16.638Z,60.40
2018-07-17T13:09:45.552Z,59.30
2018-07-17T13:12:14.412Z,58.60
2018-07-17T13:14:43.809Z,57.30
2018-07-17T13:17:12.542Z,56.90
2018-07-17T13:19:41.381Z,57.30
2018-07-17T13:22:10.097Z,56.90
2018-07-17T13:24:39.644Z,56.90
2018-07-17T13:27:08.483Z,55.60
2018-07-17T13:29:37.346Z,55.30
2018-07-17T13:32:06.121Z,56.50
2018-07-17T13:34:34.826Z,56.20
2018-07-17T13:37:07.616Z,55.80
2018-07-17T13:39:36.449Z,55.60
2018-07-17T13:42:05.305Z,55.50
2018-07-17T13:44:34.102Z,56.10
2018-07-17T13:47:03.639Z,56.70
2018-07-17T13:49:32.409Z,57.20
2018-07-17T13:52:01.246Z,55.90
2018-07-17T13:54:30.058Z,56.00
2018-07-17T13:56:58.963Z,56.10
2018-07-17T13:59:27.854Z,56.80
2018-07-17T14:01:56.727Z,57.40
2018-07-17T14:04:25.560Z,58.90
2018-07-17T14:06:54.374Z,58.90
2018-07-17T14:09:23.253Z,58.90
2018-07-17T14:11:52.011Z,59.20
2018-07-17T14:14:21.072Z,59.70
2018-07-17T14:16:49.746Z,60.10
2018-07-17T14:19:18.895Z,60.40
2018-07-17T14:21:47.614Z,60.10
2018-07-17T14:24:16.449Z,59.00
2018-07-17T14:26:47.740Z,59.00
2018-07-17T14:29:16.693Z,59.90
2018-07-17T14:31:45.511Z,62.70
2018-07-17T14:34:14.443Z,62.90
2018-07-17T14:36:43.250Z,63.90
2018-07-17T14:39:13.433Z,65.30
2018-07-17T14:41:42.925Z,64.00
2018-07-17T14:44:12.204Z,64.10
2018-07-17T14:46:40.963Z,64.60
2018-07-17T14:49:09.845Z,64.10
2018-07-17T14:51:39.393Z,64.40
2018-07-17T14:54:08.309Z,64.20
2018-07-17T14:56:37.272Z,63.90
2018-07-17T14:59:06.053Z,64.00
2018-07-17T15:01:34.866Z,63.80
2018-07-17T15:04:03.721Z,64.20
2018-07-17T15:06:32.666Z,64.00
2018-07-17T15:09:01.580Z,63.00
2018-07-17T15:11:30.409Z,62.40
2018-07-17T15:13:59.202Z,64.00
2018-07-17T15:16:29.406Z,63.70
2018-07-17T15:18:58.105Z,63.30
2018-07-17T15:21:27.019Z,62.80
2018-07-17T15:23:55.862Z,62.50
2018-07-17T15:26:24.613Z,63.00
2018-07-17T15:28:53.427Z,62.00
2018-07-17T15:31:22.122Z,62.00
2018-07-17T15:33:50.897Z,62.10
2018-07-17T15:36:19.620Z,62.50
2018-07-17T15:38:49.153Z,62.30
2018-07-17T15:41:17.896Z,62.50
2018-07-17T15:43:46.762Z,61.70
2018-07-17T15:46:15.800Z,61.60
2018-07-17T15:48:46.203Z,62.20
2018-07-17T15:51:15.002Z,62.40
2018-07-17T15:53:44.068Z,62.40
2018-07-17T15:56:12.795Z,62.30
2018-07-17T15:58:41.613Z,62.30
2018-07-17T16:01:10.338Z,62.70
2018-07-17T16:03:39.110Z,63.80
2018-07-17T16:06:08.805Z,64.70
2018-07-17T16:08:37.565Z,64.60
2018-07-17T16:11:06.512Z,63.60
2018-07-17T16:13:35.421Z,63.10
2018-07-17T16:16:04.140Z,62.70
2018-07-17T16:18:32.977Z,62.90
2018-07-17T16:21:02.041Z,63.70
2018-07-17T16:23:30.645Z,62.80
2018-07-17T16:25:59.479Z,62.70
2018-07-17T16:28:28.236Z,62.80
2018-07-17T16:30:56.918Z,63.40
2018-07-17T16:33:25.614Z,63.90
2018-07-17T16:35:54.465Z,64.10
2018-07-17T16:38:23.255Z,64.90
2018-07-17T16:40:52.065Z,64.50
2018-07-17T16:43:20.809Z,64.80
2018-07-17T16:45:51.229Z,65.30
2018-07-17T16:48:20.001Z,65.30
2018-07-17T16:50:48.872Z,65.60
2018-07-17T16:53:17.650Z,65.00
2018-07-17T16:55:46.560Z,64.50
2018-07-17T16:58:15.203Z,62.60
2018-07-17T17:00:43.945Z,61.60
2018-07-17T17:03:12.623Z,60.00
2018-07-17T17:05:41.467Z,59.10
2018-07-17T17:08:10.271Z,58.60
2018-07-17T17:10:39.097Z,59.40
2018-07-17T17:13:09.274Z,60.60
2018-07-17T17:15:38.155Z,59.80
2018-07-17T17:18:06.983Z,58.50
2018-07-17T17:20:35.821Z,57.70
2018-07-17T17:23:04.714Z,57.60
2018-07-17T17:25:33.478Z,58.20
2018-07-17T17:28:02.235Z,59.80
2018-07-17T17:30:31.074Z,60.80
2018-07-17T17:32:59.905Z,61.60
2018-07-17T17:35:28.662Z,62.40
2018-07-17T17:37:57.565Z,63.10
2018-07-17T17:40:26.367Z,63.50
2018-07-17T17:42:55.043Z,63.60
2018-07-17T17:45:24.009Z,64.00
2018-07-17T17:47:52.777Z,64.00
2018-07-17T17:50:21.541Z,64.40
2018-07-17T17:52:50.316Z,64.70
2018-07-17T17:55:19.033Z,65.00
2018-07-17T17:57:47.825Z,65.30
2018-07-17T18:00:16.589Z,65.40
2018-07-17T18:02:45.275Z,65.70
2018-07-17T18:05:14.105Z,66.00
2018-07-17T18:07:42.930Z,66.20
2018-07-17T18:10:11.739Z,66.50
2018-07-17T18:12:40.452Z,66.90
2018-07-17T18:15:09.469Z,66.90
2018-07-17T18:17:38.596Z,66.50
2018-07-17T18:20:07.418Z,67.00
2018-07-17T18:22:36.237Z,67.20
2018-07-17T18:25:04.970Z,67.30
2018-07-17T18:27:33.777Z,67.40
2018-07-17T18:30:02.641Z,67.50
2018-07-17T18:32:31.549Z,67.50
2018-07-17T18:35:02.576Z,67.40
2018-07-17T18:37:31.359Z,67.70
2018-07-17T18:40:02.744Z,67.90
2018-07-17T18:42:31.497Z,67.90
2018-07-17T18:45:00.423Z,67.70
2018-07-17T18:47:29.185Z,67.80
2018-07-17T18:50:12.312Z,68.00
2018-07-17T18:52:26.994Z,68.40
2018-07-17T18:54:55.715Z,68.70
2018-07-17T18:57:24.495Z,69.00
2018-07-17T18:59:53.262Z,68.70
2018-07-17T19:02:21.988Z,67.40
2018-07-17T19:04:50.876Z,67.50
2018-07-17T19:07:19.645Z,67.40
2018-07-17T19:09:48.381Z,67.60
2018-07-17T19:12:17.203Z,67.80
2018-07-17T19:14:45.967Z,67.90
2018-07-17T19:17:14.678Z,68.40
2018-07-17T19:19:43.476Z,68.50
2018-07-17T19:22:12.314Z,68.30
2018-07-17T19:24:41.159Z,68.50
2018-07-17T19:27:09.920Z,68.90
2018-07-17T19:29:38.614Z,68.90
2018-07-17T19:32:07.394Z,69.10
2018-07-17T19:34:36.298Z,69.50
2018-07-17T19:37:05.102Z,69.90
2018-07-17T19:39:33.775Z,69.90
2018-07-17T19:42:03.119Z,69.80
2018-07-17T19:44:31.938Z,70.00
2018-07-17T19:47:00.791Z,70.00
2018-07-17T19:49:29.608Z,70.20
2018-07-17T19:51:58.385Z,70.10
2018-07-17T19:54:27.264Z,70.50
2018-07-17T19:56:56.068Z,70.70
2018-07-17T19:59:24.901Z,70.70
2018-07-17T20:01:53.829Z,70.90
2018-07-17T20:04:22.658Z,70.70
2018-07-17T20:06:51.330Z,70.70
2018-07-17T20:09:20.073Z,70.70
2018-07-17T20:11:48.854Z,70.90
2018-07-17T20:14:17.709Z,71.00
2018-07-17T20:16:46.530Z,71.00
2018-07-17T20:19:15.350Z,70.70
2018-07-17T20:21:44.202Z,70.60
2018-07-17T20:24:12.919Z,70.60
2018-07-17T20:26:41.613Z,70.80
2018-07-17T20:29:10.330Z,70.90
2018-07-17T20:31:39.137Z,70.90
2018-07-17T20:34:07.956Z,71.10
2018-07-17T20:36:37.493Z,71.00
2018-07-17T20:39:07.962Z,71.20
2018-07-17T20:41:36.880Z,70.70
2018-07-17T20:44:06.012Z,69.90
2018-07-17T20:46:34.700Z,70.10
2018-07-17T20:49:03.390Z,70.50
2018-07-17T20:51:32.200Z,71.50
2018-07-17T20:54:00.966Z,71.90
2018-07-17T20:56:29.818Z,72.00
2018-07-17T20:58:58.596Z,72.00
2018-07-17T21:01:27.470Z,72.20
2018-07-17T21:03:56.253Z,72.30
2018-07-17T21:06:25.055Z,72.40
2018-07-17T21:08:54.009Z,72.40
2018-07-17T21:11:22.918Z,72.50
2018-07-17T21:13:51.753Z,72.90
2018-07-17T21:16:20.501Z,72.70
2018-07-17T21:18:49.389Z,72.80
2018-07-17T21:21:18.106Z,73.00
2018-07-17T21:23:46.975Z,73.20
2018-07-17T21:26:15.817Z,73.40
2018-07-17T21:28:44.540Z,73.50
2018-07-17T21:31:13.247Z,73.70
2018-07-17T21:33:42.030Z,73.50
2018-07-17T21:36:10.631Z,73.50
2018-07-17T21:38:39.430Z,73.60
2018-07-17T21:41:08.216Z,74.10
2018-07-17T21:43:36.963Z,74.20
2018-07-17T21:46:05.879Z,74.20
2018-07-17T21:48:34.687Z,74.40
2018-07-17T21:51:03.464Z,74.50
2018-07-17T21:53:32.237Z,74.30
2018-07-17T21:56:01.096Z,74.30
2018-07-17T21:58:29.847Z,74.40
2018-07-17T22:00:58.774Z,74.80
2018-07-17T22:03:27.598Z,75.20
2018-07-17T22:05:56.435Z,75.10
2018-07-17T22:08:25.278Z,75.20
2018-07-17T22:10:54.084Z,75.00
2018-07-17T22:13:22.762Z,74.90
2018-07-17T22:15:51.541Z,74.80
2018-07-17T22:18:22.018Z,75.00
2018-07-17T22:20:50.938Z,75.20
2018-07-17T22:23:19.714Z,75.50
2018-07-17T22:25:48.558Z,76.00
2018-07-17T22:28:17.413Z,75.90
2018-07-17T22:30:46.178Z,75.60
2018-07-17T22:33:14.872Z,75.60
2018-07-17T22:35:43.707Z,75.20
2018-07-17T22:38:12.450Z,74.70
2018-07-17T22:40:41.265Z,74.60
2018-07-17T22:43:10.038Z,74.70
2018-07-17T22:45:38.808Z,74.90
2018-07-17T22:48:07.518Z,75.00
2018-07-17T22:50:36.385Z,74.90
2018-07-17T22:53:05.158Z,74.70
2018-07-17T22:55:33.978Z,74.60
2018-07-17T22:58:02.864Z,74.80
2018-07-17T23:00:31.660Z,74.90
2018-07-17T23:03:00.368Z,75.20
2018-07-17T23:05:29.078Z,75.50
2018-07-17T23:07:57.969Z,75.80
2018-07-17T23:10:26.728Z,76.00
2018-07-17T23:12:55.516Z,76.10
2018-07-17T23:15:24.289Z,76.10
2018-07-17T23:17:53.238Z,76.20
2018-07-17T23:20:22.141Z,75.80
2018-07-17T23:22:55.115Z,75.60
2018-07-17T23:25:24.932Z,76.00
2018-07-17T23:27:54.124Z,75.80
2018-07-17T23:30:22.844Z,75.60
2018-07-17T23:32:51.993Z,75.40
2018-07-17T23:35:21.701Z,75.30
2018-07-17T23:37:51.007Z,75.30
2018-07-17T23:40:21.383Z,75.10
2018-07-17T23:42:50.262Z,75.40
2018-07-17T23:45:19.146Z,76.10
2018-07-17T23:47:48.614Z,76.60
2018-07-17T23:50:17.322Z,76.30
2018-07-17T23:52:46.129Z,76.30
2018-07-17T23:55:14.966Z,76.20
2018-07-17T23:57:43.733Z,76.10
